aviador You're here:

KSMQ Decoded Metar

SOMERVILLE in NJ, USA
Report Time2018-01-20 04:53:00
UTC Time2018-01-20 05:10:29
Flight Rules vfr VFR
WindCalm
Visibility9999 m
Phenomena:N/A
Clouds:N/A
Expected CloudBase > 400 ft AGL from Temp-Dew spread
CeilingNone
Temp-6°C (ISA -21)
Dew Point-7°C (93% RH)
AAT-8.8°C
QNH1014 hPa
Density Alt-2,464 ft
Elevation98 ft
Report Wrong Elevation
Raw Report
METAR KSMQ 200453Z AUTO 00000KT 8SM CLR M06/M07 A2993 RMK AO2 SLP139
T10611067 400331128=

Extra information for KSMQ:More info

Metar Taf Metar & Taf Last 4 Metars F.Rules Stats Wind Profile Meteogram Temp Stats Airport Information Weather charts Add Link Nearby VenuesMetar ALERT Operation Metar Decoded Social comments

AIRNAV info for KSMQ